Time;durP1;ratioP1;P1;durP2;ratioP2;P2;SDS_P1;SDS_P2;PMS_P1;PMS_P2;Temp;Humidity;BMP_temperature;BMP_pressure;BME280_temperature;BME280_humidity;BME280_pressure;Samples;Min_cycle;Max_cycle;Signal;HPM_P1;HPM_P2
2021/01/26 00:01:03;;;;;;;12.95;1.95;;;3.50;99.90;;;;;;5029799;28;20044;-79
2021/01/26 00:03:29;;;;;;;18.35;2.30;;;3.50;99.90;;;;;;5018468;28;20064;-79
2021/01/26 00:05:54;;;;;;;24.15;2.30;;;3.50;99.90;;;;;;5009553;28;20109;-78
2021/01/26 00:08:21;;;;;;;11.57;2.05;;;3.50;99.90;;;;;;5017829;28;20045;-78
2021/01/26 00:10:47;;;;;;;16.02;1.63;;;3.50;99.90;;;;;;5013833;28;20029;-78
2021/01/26 00:13:14;;;;;;;23.42;2.42;;;3.50;99.90;;;;;;5020695;28;20051;-79
2021/01/26 00:15:40;;;;;;;11.52;1.48;;;3.60;99.90;;;;;;5019037;28;20037;-79
2021/01/26 00:18:07;;;;;;;16.05;1.60;;;3.60;99.90;;;;;;5014159;28;20046;-79
2021/01/26 00:20:34;;;;;;;15.30;1.80;;;3.50;99.80;;;;;;5033141;28;20058;-79
2021/01/26 00:23:01;;;;;;;13.65;1.50;;;3.60;99.80;;;;;;5004687;28;20054;-79
2021/01/26 00:25:35;;;;;;;14.32;1.70;;;3.60;99.80;;;;;;5017625;28;20121;-79
2021/01/26 00:28:03;;;;;;;20.73;1.70;;;3.50;99.80;;;;;;5018370;28;20038;-78
2021/01/26 00:30:31;;;;;;;18.27;1.83;;;3.50;99.80;;;;;;5011820;28;20386;-78
2021/01/26 00:32:59;;;;;;;17.27;1.70;;;3.50;99.80;;;;;;5019590;28;20064;-79
2021/01/26 00:35:29;;;;;;;14.88;2.25;;;3.50;99.80;;;;;;5003244;28;20054;-78
2021/01/26 00:37:56;;;;;;;15.30;1.35;;;3.50;99.80;;;;;;5020913;28;20056;-78
2021/01/26 00:40:22;;;;;;;13.13;2.13;;;3.50;99.80;;;;;;4998458;28;20779;-78
2021/01/26 00:42:48;;;;;;;12.73;2.53;;;3.60;99.90;;;;;;5024075;28;20469;-78
2021/01/26 00:45:15;;;;;;;19.13;1.83;;;3.60;99.90;;;;;;5015927;28;20046;-78
2021/01/26 00:47:42;;;;;;;24.33;2.15;;;3.60;99.90;;;;;;5035232;28;20054;-79
2021/01/26 00:50:09;;;;;;;15.80;1.48;;;3.60;99.80;;;;;;5010642;28;20025;-79
2021/01/26 00:52:35;;;;;;;17.15;1.80;;;3.60;99.80;;;;;;5016653;28;20523;-79
2021/01/26 00:55:01;;;;;;;14.55;1.60;;;3.70;99.80;;;;;;5003257;28;20088;-78
2021/01/26 00:57:27;;;;;;;11.48;1.42;;;3.60;99.70;;;;;;5024958;28;20037;-78
2021/01/26 00:59:53;;;;;;;11.82;1.40;;;3.70;99.80;;;;;;4993345;28;20046;-78
2021/01/26 01:02:19;;;;;;;15.80;1.77;;;3.70;99.80;;;;;;5017331;28;20038;-78
2021/01/26 01:04:46;;;;;;;14.95;2.03;;;3.70;99.70;;;;;;5017099;28;20052;-78
2021/01/26 01:07:16;;;;;;;12.55;1.80;;;3.70;99.70;;;;;;4999288;28;20128;-78
2021/01/26 01:09:44;;;;;;;16.77;1.75;;;3.70;99.80;;;;;;5022222;28;20033;-78
2021/01/26 01:12:09;;;;;;;13.95;1.30;;;3.70;99.70;;;;;;4996291;28;20037;-78
2021/01/26 01:14:39;;;;;;;20.25;2.22;;;3.70;99.70;;;;;;5022534;28;20120;-78
2021/01/26 01:17:05;;;;;;;13.45;1.77;;;3.70;99.70;;;;;;5016913;28;20060;-78
2021/01/26 01:19:30;;;;;;;12.10;1.80;;;3.70;99.70;;;;;;5020063;28;20446;-78
2021/01/26 01:21:57;;;;;;;13.60;1.80;;;3.70;99.70;;;;;;5033259;28;20062;-78
2021/01/26 01:24:22;;;;;;;15.00;1.58;;;3.70;99.70;;;;;;5020129;28;20925;-78
2021/01/26 01:26:49;;;;;;;13.25;1.98;;;3.70;99.60;;;;;;5032775;28;20310;-78
2021/01/26 01:29:15;;;;;;;8.38;1.65;;;3.80;99.70;;;;;;5056659;28;20048;-78
2021/01/26 01:31:41;;;;;;;10.00;1.35;;;3.80;99.50;;;;;;5055909;28;20051;-78
2021/01/26 01:34:07;;;;;;;10.23;1.50;;;3.80;99.50;;;;;;5047295;28;20043;-79
2021/01/26 01:36:34;;;;;;;13.75;1.20;;;3.70;99.30;;;;;;5042769;28;20095;-78
2021/01/26 01:39:00;;;;;;;8.60;1.17;;;3.70;99.20;;;;;;5043266;28;20112;-78
2021/01/26 01:41:34;;;;;;;11.02;1.80;;;3.80;99.00;;;;;;5038081;28;20112;-79
2021/01/26 01:44:00;;;;;;;6.63;0.73;;;3.80;99.10;;;;;;5048429;28;20453;-78
2021/01/26 01:46:29;;;;;;;6.00;0.98;;;3.80;98.90;;;;;;5020603;28;20080;-78
2021/01/26 01:49:02;;;;;;;9.30;1.27;;;3.80;98.80;;;;;;5052542;28;20045;-79
2021/01/26 01:51:29;;;;;;;10.50;1.25;;;3.90;98.80;;;;;;5044497;28;20037;-78
2021/01/26 01:54:01;;;;;;;9.13;1.25;;;3.80;98.70;;;;;;5045823;28;20053;-79
2021/01/26 01:56:36;;;;;;;5.40;0.70;;;3.80;98.70;;;;;;5059488;28;20456;-79
2021/01/26 01:59:08;;;;;;;10.45;1.20;;;3.80;98.50;;;;;;5028464;28;20513;-78
2021/01/26 02:01:34;;;;;;;4.45;0.68;;;3.80;98.70;;;;;;5039999;28;20128;-79
2021/01/26 02:04:11;;;;;;;8.00;1.42;;;3.80;98.40;;;;;;5037324;28;20072;-78
2021/01/26 02:06:39;;;;;;;6.05;1.80;;;3.80;98.20;;;;;;5042578;28;20037;-78
2021/01/26 02:09:05;;;;;;;8.63;2.35;;;3.70;98.10;;;;;;5021480;28;20040;-79
2021/01/26 02:11:31;;;;;;;9.50;2.28;;;3.60;97.80;;;;;;5053927;28;20084;-79
2021/01/26 02:13:57;;;;;;;6.32;2.42;;;3.40;97.70;;;;;;5036909;28;20088;-78
2021/01/26 02:16:31;;;;;;;9.50;2.97;;;3.30;97.70;;;;;;5040093;28;20060;-79
2021/01/26 02:19:30;;;;;;;9.13;3.40;;;3.10;97.80;;;;;;5050938;28;20060;-78
2021/01/26 02:22:10;;;;;;;8.07;3.83;;;2.90;97.20;;;;;;5027573;28;20049;-78
2021/01/26 02:25:12;;;;;;;9.85;4.32;;;2.70;97.60;;;;;;5030267;28;20610;-80
2021/01/26 02:27:52;;;;;;;13.82;5.20;;;2.40;97.60;;;;;;5044612;28;20037;-78
2021/01/26 02:30:47;;;;;;;15.23;5.50;;;2.30;97.90;;;;;;5035167;28;20118;-78
2021/01/26 02:33:56;;;;;;;11.87;5.83;;;2.10;97.90;;;;;;5040384;28;20052;-78
2021/01/26 02:36:47;;;;;;;10.98;6.70;;;2.00;98.10;;;;;;5029649;28;20060;-78
2021/01/26 02:39:17;;;;;;;16.63;7.30;;;1.90;98.40;;;;;;5051995;28;20543;-78
2021/01/26 02:41:56;;;;;;;22.92;8.93;;;1.80;98.40;;;;;;5056279;28;20437;-78
2021/01/26 02:44:25;;;;;;;20.67;9.43;;;1.80;98.40;;;;;;5024115;28;20053;-78
2021/01/26 02:47:16;;;;;;;34.25;9.75;;;1.60;98.40;;;;;;5045850;28;20075;-78
2021/01/26 02:49:58;;;;;;;40.58;12.20;;;1.60;98.60;;;;;;5037795;28;20041;-79
2021/01/26 02:52:34;;;;;;;33.35;12.05;;;1.50;98.70;;;;;;5041322;28;20037;-78
2021/01/26 02:55:06;;;;;;;33.80;12.38;;;1.50;98.80;;;;;;5022070;28;20401;-78
2021/01/26 02:58:17;;;;;;;45.53;14.80;;;1.40;98.90;;;;;;5030036;28;20044;-78
2021/01/26 03:00:43;;;;;;;32.63;12.70;;;1.50;99.10;;;;;;4958980;28;20133;-78
2021/01/26 03:03:18;;;;;;;37.55;12.77;;;1.40;99.10;;;;;;4984920;28;20046;-79
2021/01/26 03:05:57;;;;;;;37.83;12.63;;;1.40;99.20;;;;;;4977788;28;20353;-79
2021/01/26 03:08:26;;;;;;;47.33;14.40;;;1.40;99.30;;;;;;4983562;28;20038;-78
2021/01/26 03:11:02;;;;;;;25.83;11.13;;;1.40;99.30;;;;;;4962055;28;20387;-78
2021/01/26 03:13:30;;;;;;;30.73;13.05;;;1.40;99.30;;;;;;4979609;28;20478;-79
2021/01/26 03:16:06;;;;;;;28.17;11.82;;;1.40;99.40;;;;;;4974713;28;20070;-79
2021/01/26 03:19:09;;;;;;;31.63;13.25;;;1.40;99.40;;;;;;4970440;28;20050;-79
2021/01/26 03:21:37;;;;;;;41.60;14.00;;;1.40;99.40;;;;;;4923356;29;20089;-79
2021/01/26 03:24:08;;;;;;;38.38;14.85;;;1.40;99.50;;;;;;4945570;28;20407;-78
2021/01/26 03:26:35;;;;;;;35.40;14.73;;;1.40;99.50;;;;;;4925545;29;20062;-79
2021/01/26 03:29:06;;;;;;;46.28;16.25;;;1.40;99.60;;;;;;4944354;29;20130;-78
2021/01/26 03:31:43;;;;;;;33.67;14.32;;;1.40;99.60;;;;;;4941569;28;20055;-79
2021/01/26 03:34:14;;;;;;;41.50;16.17;;;1.40;99.70;;;;;;4931423;29;20106;-79
2021/01/26 03:36:42;;;;;;;33.38;15.40;;;1.40;99.70;;;;;;4953638;28;20057;-79
2021/01/26 03:39:09;;;;;;;32.03;15.60;;;1.40;99.70;;;;;;4984061;28;20554;-78
2021/01/26 03:41:35;;;;;;;35.42;16.50;;;1.40;99.70;;;;;;4961818;28;20516;-78
2021/01/26 03:44:01;;;;;;;42.33;17.13;;;1.40;99.80;;;;;;4978086;28;20068;-79
2021/01/26 03:46:45;;;;;;;32.30;16.90;;;1.40;99.80;;;;;;4972703;28;20046;-78
2021/01/26 03:49:56;;;;;;;33.60;16.42;;;1.50;99.80;;;;;;4977338;28;20038;-78
2021/01/26 03:52:38;;;;;;;26.23;14.25;;;1.50;99.90;;;;;;4967642;28;20537;-79
2021/01/26 03:55:29;;;;;;;32.95;17.42;;;1.50;99.90;;;;;;4989218;28;20813;-79
2021/01/26 03:58:13;;;;;;;25.88;14.30;;;1.50;99.90;;;;;;5010918;28;20053;-78
2021/01/26 04:00:42;;;;;;;28.25;15.35;;;1.50;99.90;;;;;;5061655;28;20052;-79
2021/01/26 04:03:16;;;;;;;28.63;14.95;;;1.50;99.90;;;;;;5024568;28;20050;-78
2021/01/26 04:06:12;;;;;;;26.20;15.05;;;1.50;99.90;;;;;;5035108;28;20092;-78
2021/01/26 04:08:44;;;;;;;28.98;14.73;;;1.60;99.90;;;;;;5037933;28;20071;-79
2021/01/26 04:11:19;;;;;;;18.58;12.18;;;1.60;99.90;;;;;;5041869;28;20121;-79
2021/01/26 04:14:02;;;;;;;15.00;10.63;;;1.50;99.90;;;;;;5021201;28;20072;-78
2021/01/26 04:16:38;;;;;;;18.55;12.98;;;1.50;99.80;;;;;;5023300;28;20049;-78
2021/01/26 04:19:06;;;;;;;22.13;13.45;;;1.50;99.80;;;;;;5034849;28;20120;-78
2021/01/26 04:21:34;;;;;;;17.90;13.15;;;1.50;99.80;;;;;;5036689;28;20080;-79
2021/01/26 04:24:00;;;;;;;16.92;12.43;;;1.50;99.80;;;;;;5041483;28;20400;-78
2021/01/26 04:26:31;;;;;;;17.98;12.68;;;1.50;99.80;;;;;;5059462;28;20057;-79
2021/01/26 04:28:57;;;;;;;20.20;12.13;;;1.60;99.70;;;;;;5034691;28;20051;-78
2021/01/26 04:31:23;;;;;;;19.33;12.55;;;1.50;99.50;;;;;;5025097;28;20128;-79
2021/01/26 04:33:54;;;;;;;14.95;10.73;;;1.50;99.70;;;;;;5046517;28;20047;-78
2021/01/26 04:36:22;;;;;;;15.70;11.40;;;1.50;99.70;;;;;;5043449;28;20033;-78
2021/01/26 04:38:48;;;;;;;15.45;11.68;;;1.60;99.80;;;;;;5038534;28;20469;-78
2021/01/26 04:41:21;;;;;;;17.17;11.85;;;1.60;99.70;;;;;;5062224;28;20025;-78
2021/01/26 04:43:58;;;;;;;19.17;11.80;;;1.60;99.70;;;;;;5058754;28;20046;-78
2021/01/26 04:46:31;;;;;;;14.05;10.80;;;1.60;99.70;;;;;;5056191;28;20131;-79
2021/01/26 04:49:17;;;;;;;16.77;11.43;;;1.60;99.70;;;;;;5017377;28;20109;-78
2021/01/26 04:52:11;;;;;;;16.17;11.85;;;1.60;99.70;;;;;;5036032;28;20757;-78
2021/01/26 04:54:56;;;;;;;15.90;11.35;;;1.70;99.80;;;;;;5033095;28;20064;-79
2021/01/26 04:57:43;;;;;;;;;;;1.70;99.80;;;;;;5034201;28;20072;-79
2021/01/26 05:00:37;;;;;;;15.13;10.85;;;1.60;99.60;;;;;;5045579;28;19923;-78
2021/01/26 05:03:12;;;;;;;16.63;12.57;;;1.70;99.70;;;;;;5046803;28;20822;-78
2021/01/26 05:05:42;;;;;;;20.00;12.60;;;1.70;99.70;;;;;;5041281;28;20044;-79
2021/01/26 05:08:14;;;;;;;18.33;12.82;;;1.70;99.70;;;;;;5043063;28;20034;-79
2021/01/26 05:10:47;;;;;;;22.45;13.15;;;1.70;99.70;;;;;;5047713;28;20128;-78
2021/01/26 05:13:25;;;;;;;21.08;12.43;;;1.70;99.70;;;;;;5066790;28;20458;-78
2021/01/26 05:15:57;;;;;;;22.25;13.65;;;1.70;99.70;;;;;;5028495;28;20068;-78
2021/01/26 05:18:47;;;;;;;18.00;12.90;;;1.70;99.70;;;;;;5041645;28;20033;-78
2021/01/26 05:21:22;;;;;;;18.75;12.75;;;1.60;99.60;;;;;;5022807;28;20162;-78
2021/01/26 05:23:55;;;;;;;21.42;12.55;;;1.60;99.60;;;;;;5047320;28;20405;-79
2021/01/26 05:26:20;;;;;;;24.23;13.48;;;1.60;99.70;;;;;;5058248;28;20087;-78
2021/01/26 05:28:47;;;;;;;26.50;14.10;;;1.50;99.70;;;;;;5027221;28;20045;-80
2021/01/26 05:31:26;;;;;;;26.75;14.15;;;1.50;99.80;;;;;;5045070;28;20107;-78
2021/01/26 05:34:08;;;;;;;31.60;14.23;;;1.50;99.80;;;;;;5039300;28;20485;-79
2021/01/26 05:36:35;;;;;;;21.95;13.55;;;1.60;99.90;;;;;;5016191;28;20177;-79
2021/01/26 05:39:03;;;;;;;21.70;13.77;;;1.50;99.90;;;;;;5028673;28;20057;-79
2021/01/26 05:41:30;;;;;;;17.67;12.07;;;1.50;99.90;;;;;;5059236;28;20037;-78
2021/01/26 05:43:58;;;;;;;35.92;14.80;;;1.60;99.90;;;;;;5041986;28;20052;-80
2021/01/26 05:46:32;;;;;;;40.75;14.80;;;1.60;99.90;;;;;;5028781;28;20180;-79
2021/01/26 05:48:58;;;;;;;28.63;15.23;;;1.60;99.90;;;;;;5057353;28;20064;-79
2021/01/26 05:51:26;;;;;;;23.75;13.65;;;1.60;99.90;;;;;;5034941;28;20056;-80
2021/01/26 05:54:14;;;;;;;26.05;14.10;;;1.60;99.90;;;;;;5073806;28;20116;-79
2021/01/26 05:56:51;;;;;;;28.67;13.93;;;1.60;99.90;;;;;;5028459;28;20063;-79
2021/01/26 05:59:28;;;;;;;24.00;14.20;;;1.60;99.90;;;;;;5043303;28;20045;-80
2021/01/26 06:01:54;;;;;;;17.35;13.18;;;1.60;99.90;;;;;;5032304;28;20053;-79
2021/01/26 06:04:29;;;;;;;18.77;12.48;;;1.70;99.90;;;;;;5015131;28;20060;-79
2021/01/26 06:06:58;;;;;;;18.05;13.25;;;1.70;99.90;;;;;;5038305;28;20615;-80
2021/01/26 06:09:35;;;;;;;29.92;14.80;;;1.70;99.90;;;;;;5030095;28;20057;-80
2021/01/26 06:12:11;;;;;;;28.33;15.10;;;1.80;99.90;;;;;;5025814;28;20037;-80
2021/01/26 06:14:39;;;;;;;26.38;14.75;;;1.70;99.90;;;;;;5029633;28;20052;-79
2021/01/26 06:17:09;;;;;;;27.17;14.45;;;1.70;99.90;;;;;;5027295;28;20067;-79
2021/01/26 06:19:35;;;;;;;25.83;14.43;;;1.70;99.90;;;;;;5045101;28;20060;-79
2021/01/26 06:22:03;;;;;;;33.10;14.20;;;1.60;99.90;;;;;;5038612;28;20143;-79
2021/01/26 06:24:32;;;;;;;36.30;14.07;;;1.50;99.90;;;;;;5068542;28;20045;-79
2021/01/26 06:27:02;;;;;;;31.65;13.95;;;1.40;99.90;;;;;;5048993;28;20045;-79
2021/01/26 06:29:59;;;;;;;29.30;13.43;;;1.30;99.90;;;;;;5045435;28;20044;-79
2021/01/26 06:32:43;;;;;;;31.10;13.15;;;1.20;99.90;;;;;;5046786;28;20396;-79
2021/01/26 06:36:06;;;;;;;41.15;14.55;;;1.20;99.90;;;;;;5043584;28;20029;-79
2021/01/26 06:38:58;;;;;;;36.75;15.07;;;1.10;99.90;;;;;;4992033;28;20079;-79
2021/01/26 06:42:12;;;;;;;34.63;15.32;;;1.10;99.90;;;;;;4992724;28;20165;-78
2021/01/26 06:45:03;;;;;;;47.40;16.23;;;1.10;99.90;;;;;;4990206;28;20113;-79
2021/01/26 06:47:54;;;;;;;45.25;16.08;;;1.10;99.90;;;;;;5010237;28;20106;-79
2021/01/26 06:51:07;;;;;;;44.95;16.45;;;1.10;99.90;;;;;;4977519;28;20093;-80
2021/01/26 06:54:00;;;;;;;30.33;15.27;;;1.20;99.90;;;;;;4946917;28;20557;-79
2021/01/26 06:57:21;;;;;;;56.05;16.73;;;1.20;99.90;;;;;;4992838;28;20062;-79
2021/01/26 06:59:54;;;;;;;41.30;16.73;;;1.20;99.90;;;;;;4912387;28;20170;-78
2021/01/26 07:02:41;;;;;;;48.97;16.80;;;1.30;99.90;;;;;;4932746;29;20067;-78
2021/01/26 07:05:37;;;;;;;33.92;15.63;;;1.30;99.90;;;;;;4913083;29;20055;-79
2021/01/26 07:08:05;;;;;;;53.75;17.80;;;1.30;99.90;;;;;;4931853;29;20136;-79
2021/01/26 07:11:09;;;;;;;35.17;15.98;;;1.40;99.90;;;;;;4944502;28;20051;-79
2021/01/26 07:13:57;;;;;;;60.40;18.15;;;1.40;99.90;;;;;;4955556;28;20142;-80
2021/01/26 07:16:31;;;;;;;68.82;18.60;;;1.40;99.90;;;;;;4952778;28;20051;-80
2021/01/26 07:19:20;;;;;;;52.40;18.27;;;1.40;99.90;;;;;;4952115;28;20088;-79
2021/01/26 07:21:58;;;;;;;46.90;17.23;;;1.40;99.90;;;;;;4951993;28;20043;-79
2021/01/26 07:25:01;;;;;;;54.67;19.38;;;1.40;99.90;;;;;;4951629;28;20484;-80
2021/01/26 07:27:53;;;;;;;59.65;19.48;;;1.50;99.90;;;;;;4946233;28;20075;-79
2021/01/26 07:30:52;;;;;;;49.33;18.48;;;1.50;99.90;;;;;;4926722;28;20130;-80
2021/01/26 07:33:21;;;;;;;68.90;19.23;;;1.50;99.90;;;;;;4947602;28;20086;-81
2021/01/26 07:36:11;;;;;;;54.35;18.17;;;1.50;99.90;;;;;;5008172;28;20208;-80
2021/01/26 07:38:58;;;;;;;51.10;18.10;;;1.60;99.90;;;;;;5061091;28;20068;-82
2021/01/26 07:41:41;;;;;;;46.22;19.38;;;1.60;99.90;;;;;;5046035;28;20040;-81
2021/01/26 07:44:17;;;;;;;54.63;19.60;;;1.60;99.90;;;;;;5063567;28;20040;-81
2021/01/26 07:46:51;;;;;;;54.35;18.20;;;1.60;99.90;;;;;;5037986;28;20299;-81
2021/01/26 07:49:29;;;;;;;47.03;17.90;;;1.60;99.90;;;;;;5048794;28;20166;-79
2021/01/26 07:51:58;;;;;;;50.05;17.80;;;1.70;99.90;;;;;;5062408;28;20057;-80
2021/01/26 07:54:43;;;;;;;74.43;18.33;;;1.70;99.90;;;;;;5056556;28;20370;-80
2021/01/26 07:57:09;;;;;;;;;;;1.80;99.90;;;;;;5037252;28;20122;-81
2021/01/26 07:59:40;;;;;;;66.90;18.00;;;1.80;99.90;;;;;;5044701;28;19921;-81
2021/01/26 08:02:19;;;;;;;72.95;19.25;;;1.80;99.90;;;;;;5051947;28;20405;-82
2021/01/26 08:04:46;;;;;;;66.88;17.60;;;1.80;99.90;;;;;;5039649;28;20511;-80
2021/01/26 08:07:30;;;;;;;65.13;17.48;;;1.80;99.90;;;;;;5049859;28;20139;-79
2021/01/26 08:09:59;;;;;;;71.05;17.92;;;1.80;99.90;;;;;;5035743;28;20048;-80
2021/01/26 08:12:28;;;;;;;60.85;15.98;;;1.70;99.90;;;;;;5044482;28;20040;-79
2021/01/26 08:14:56;;;;;;;50.78;16.38;;;1.70;99.90;;;;;;5050058;28;20041;-79
2021/01/26 08:17:30;;;;;;;37.25;14.77;;;1.60;99.90;;;;;;5060505;28;20078;-80
2021/01/26 08:20:05;;;;;;;48.90;15.67;;;1.60;99.90;;;;;;5051954;28;20028;-80
2021/01/26 08:22:57;;;;;;;62.80;16.85;;;1.50;99.90;;;;;;5047011;28;20052;-80
2021/01/26 08:25:30;;;;;;;56.88;15.70;;;1.50;99.90;;;;;;4991273;28;20416;-80
2021/01/26 08:28:09;;;;;;;82.10;17.15;;;1.50;99.90;;;;;;4989366;28;20089;-80
2021/01/26 08:30:35;;;;;;;58.42;15.57;;;1.40;99.90;;;;;;4977756;28;20100;-80
2021/01/26 08:33:11;;;;;;;54.92;15.70;;;1.50;99.90;;;;;;4976503;28;20053;-80
2021/01/26 08:36:01;;;;;;;66.72;15.98;;;1.40;99.90;;;;;;4965321;28;20069;-80
2021/01/26 08:39:03;;;;;;;54.97;15.93;;;1.50;99.90;;;;;;4970718;28;20042;-80
2021/01/26 08:41:36;;;;;;;40.22;14.38;;;1.50;99.90;;;;;;4964706;28;20646;-79
2021/01/26 08:44:06;;;;;;;44.03;14.90;;;1.50;99.90;;;;;;4992388;28;20055;-80
2021/01/26 08:46:35;;;;;;;32.08;13.45;;;1.50;99.90;;;;;;4958827;28;20074;-80
2021/01/26 08:49:24;;;;;;;47.42;15.02;;;1.50;99.90;;;;;;4971706;28;20050;-78
2021/01/26 08:51:51;;;;;;;30.45;12.43;;;1.60;99.90;;;;;;4968305;28;20467;-80
2021/01/26 08:54:36;;;;;;;40.92;14.15;;;1.60;99.90;;;;;;4971780;28;20050;-80
2021/01/26 08:57:02;;;;;;;31.10;12.68;;;1.60;99.90;;;;;;4955548;28;20201;-78
2021/01/26 08:59:31;;;;;;;37.97;14.77;;;1.60;99.90;;;;;;4971864;28;20046;-79
2021/01/26 09:01:59;;;;;;;42.78;14.20;;;1.60;99.90;;;;;;5003368;28;20171;-80
2021/01/26 09:04:28;;;;;;;44.38;14.85;;;1.60;99.90;;;;;;5042080;28;20105;-79
2021/01/26 09:06:54;;;;;;;54.67;16.30;;;1.70;99.90;;;;;;5050122;28;20147;-80
2021/01/26 09:09:20;;;;;;;46.50;15.18;;;1.70;99.90;;;;;;5053796;28;20103;-80
2021/01/26 09:11:46;;;;;;;40.75;15.80;;;1.70;99.90;;;;;;5057749;28;20064;-79
2021/01/26 09:14:45;;;;;;;46.03;15.70;;;1.80;99.90;;;;;;5070719;28;20060;-80
2021/01/26 09:17:13;;;;;;;32.45;13.52;;;1.80;99.90;;;;;;5017923;28;20552;-80
2021/01/26 09:19:49;;;;;;;33.83;14.82;;;1.80;99.90;;;;;;5059250;28;20136;-81
2021/01/26 09:22:29;;;;;;;43.15;14.13;;;1.90;99.90;;;;;;5042703;28;20082;-81
2021/01/26 09:25:09;;;;;;;32.90;14.10;;;1.90;99.90;;;;;;5048158;28;20041;-80
2021/01/26 09:27:35;;;;;;;43.80;15.52;;;1.90;99.90;;;;;;5042768;28;20042;-81
2021/01/26 09:30:07;;;;;;;47.20;17.15;;;1.90;99.90;;;;;;5047820;28;20769;-80
2021/01/26 09:32:40;;;;;;;32.60;13.65;;;2.00;99.90;;;;;;5044851;28;20132;-80
2021/01/26 09:35:28;;;;;;;29.15;14.02;;;2.10;99.90;;;;;;5041241;28;20072;-80
2021/01/26 09:38:03;;;;;;;41.38;15.25;;;2.10;99.90;;;;;;5045684;28;20088;-81
2021/01/26 09:40:29;;;;;;;27.85;13.75;;;2.20;99.90;;;;;;5028147;28;20045;-81
2021/01/26 09:43:09;;;;;;;36.13;13.75;;;2.20;99.90;;;;;;5038010;28;20053;-81
2021/01/26 09:45:35;;;;;;;32.25;13.35;;;2.20;99.90;;;;;;5057235;28;20040;-82
2021/01/26 09:48:01;;;;;;;26.10;13.45;;;2.30;99.90;;;;;;5028385;28;20054;-80
2021/01/26 09:50:28;;;;;;;28.65;13.70;;;2.30;99.90;;;;;;5066227;28;20060;-81
2021/01/26 09:53:00;;;;;;;30.05;13.68;;;2.40;99.90;;;;;;5041739;28;20046;-80
2021/01/26 09:55:27;;;;;;;37.00;13.65;;;2.40;99.90;;;;;;5046901;28;20076;-81
2021/01/26 09:57:56;;;;;;;31.67;14.18;;;2.50;99.90;;;;;;5033072;28;20057;-80
2021/01/26 10:00:24;;;;;;;26.40;13.60;;;2.50;99.90;;;;;;5060300;28;20041;-81
2021/01/26 10:03:02;;;;;;;24.30;12.45;;;2.60;99.90;;;;;;5051813;28;20556;-81
2021/01/26 10:05:30;;;;;;;26.25;13.18;;;2.60;99.90;;;;;;5065854;28;20171;-82
2021/01/26 10:08:13;;;;;;;26.08;11.93;;;2.70;99.90;;;;;;5032222;28;20044;-81
2021/01/26 10:10:40;;;;;;;26.80;12.85;;;2.70;99.90;;;;;;5041549;28;20056;-82
2021/01/26 10:13:30;;;;;;;24.33;13.45;;;2.80;99.90;;;;;;5036616;28;20064;-80
2021/01/26 10:15:58;;;;;;;24.25;12.52;;;2.80;99.90;;;;;;5030383;28;20068;-79
2021/01/26 10:18:30;;;;;;;25.17;12.43;;;2.90;99.90;;;;;;5024988;28;20048;-79
2021/01/26 10:21:06;;;;;;;23.50;12.55;;;2.90;99.90;;;;;;5041955;28;20482;-81
2021/01/26 10:23:42;;;;;;;24.45;12.77;;;3.00;99.90;;;;;;5061012;28;20053;-80
2021/01/26 10:26:11;;;;;;;19.13;11.85;;;3.00;99.90;;;;;;5054797;28;20049;-79
2021/01/26 10:28:54;;;;;;;23.00;13.18;;;3.10;99.90;;;;;;5052513;28;20030;-79
2021/01/26 10:31:20;;;;;;;21.15;12.30;;;3.10;99.90;;;;;;5030959;28;20051;-80
2021/01/26 10:33:46;;;;;;;19.73;11.75;;;3.20;99.90;;;;;;5081319;28;20079;-79
2021/01/26 10:36:33;;;;;;;17.05;11.25;;;3.20;99.90;;;;;;5032169;28;20068;-80
2021/01/26 10:39:24;;;;;;;22.88;11.10;;;3.30;99.90;;;;;;5064321;28;20476;-80
2021/01/26 10:42:00;;;;;;;24.13;13.13;;;3.40;99.90;;;;;;5037101;28;20087;-79
2021/01/26 10:44:27;;;;;;;20.50;11.13;;;3.40;99.90;;;;;;5048037;28;20048;-81
2021/01/26 10:46:54;;;;;;;18.65;11.82;;;3.40;99.90;;;;;;5048517;28;20460;-81
2021/01/26 10:49:35;;;;;;;14.98;9.65;;;3.40;99.90;;;;;;5070871;28;20067;-81
2021/01/26 10:52:07;;;;;;;18.67;11.00;;;3.50;99.80;;;;;;5033157;28;20033;-80
2021/01/26 10:54:34;;;;;;;20.98;12.15;;;3.60;99.80;;;;;;5053576;28;20471;-83
2021/01/26 10:57:01;;;;;;;17.35;11.23;;;3.60;99.80;;;;;;5043504;28;20051;-79
2021/01/26 10:59:27;;;;;;;22.60;12.65;;;3.60;99.70;;;;;;5030650;28;20091;-81
2021/01/26 11:01:53;;;;;;;17.92;11.75;;;3.60;99.60;;;;;;5037618;28;20493;-78
2021/01/26 11:04:19;;;;;;;16.15;9.88;;;3.60;99.50;;;;;;5046438;28;20041;-81
2021/01/26 11:06:45;;;;;;;19.70;12.70;;;3.70;99.50;;;;;;5029637;28;20064;-80
2021/01/26 11:09:14;;;;;;;16.52;10.57;;;3.70;99.50;;;;;;5044980;28;20044;-80
2021/01/26 11:11:40;;;;;;;19.42;11.18;;;3.70;99.50;;;;;;5028227;28;20085;-80
2021/01/26 11:14:07;;;;;;;17.98;10.52;;;3.80;99.40;;;;;;5067583;28;20076;-80
2021/01/26 11:16:34;;;;;;;24.58;11.68;;;3.80;99.40;;;;;;5039771;28;20038;-80
2021/01/26 11:19:02;;;;;;;16.48;10.35;;;3.90;99.40;;;;;;5046991;28;20365;-80
2021/01/26 11:21:28;;;;;;;14.65;9.88;;;3.90;99.30;;;;;;5061183;28;20036;-78
2021/01/26 11:23:54;;;;;;;12.23;8.85;;;3.90;99.30;;;;;;5045793;28;20456;-78
2021/01/26 11:26:22;;;;;;;15.68;9.30;;;3.90;99.30;;;;;;5010193;28;24662;-79
2021/01/26 11:28:48;;;;;;;13.50;8.07;;;4.10;99.20;;;;;;5073630;28;20057;-79
2021/01/26 11:31:16;;;;;;;12.70;7.38;;;4.20;99.10;;;;;;5041870;28;20039;-79
2021/01/26 11:33:42;;;;;;;18.10;9.05;;;4.30;98.60;;;;;;5055899;28;20664;-78
2021/01/26 11:36:09;;;;;;;13.65;7.65;;;4.40;98.50;;;;;;5060958;28;20056;-79
2021/01/26 11:38:35;;;;;;;12.23;8.25;;;4.50;98.60;;;;;;5040092;28;20380;-80
2021/01/26 11:41:05;;;;;;;7.32;5.50;;;4.60;98.60;;;;;;5043817;28;20035;-79
2021/01/26 11:43:33;;;;;;;7.60;4.35;;;4.70;98.10;;;;;;5026117;28;20060;-83
2021/01/26 11:46:00;;;;;;;9.95;4.70;;;4.80;97.80;;;;;;5035347;28;20053;-83
2021/01/26 11:48:26;;;;;;;9.13;4.05;;;5.00;97.20;;;;;;5060718;28;20041;-82
2021/01/26 11:50:53;;;;;;;9.43;3.70;;;5.10;97.30;;;;;;5043477;28;20045;-82
2021/01/26 11:53:21;;;;;;;7.47;2.72;;;5.10;96.80;;;;;;5034148;28;20037;-83
2021/01/26 11:55:48;;;;;;;9.40;3.17;;;5.30;96.60;;;;;;5034261;28;20051;-83
2021/01/26 11:58:14;;;;;;;4.82;2.65;;;5.30;95.90;;;;;;5044136;28;20069;-82
2021/01/26 12:00:40;;;;;;;5.50;2.50;;;5.30;96.10;;;;;;5033853;28;20043;-82
2021/01/26 12:03:07;;;;;;;8.73;2.78;;;5.40;96.50;;;;;;5034509;28;20124;-82
2021/01/26 12:05:36;;;;;;;7.10;3.17;;;5.40;96.30;;;;;;5059704;28;20098;-83
2021/01/26 12:08:05;;;;;;;7.05;2.40;;;5.30;96.40;;;;;;5051775;28;20053;-81
2021/01/26 12:10:32;;;;;;;5.57;2.63;;;5.30;96.00;;;;;;5044960;28;20049;-82
2021/01/26 12:12:58;;;;;;;8.68;3.05;;;5.30;96.40;;;;;;5039293;28;20049;-83
2021/01/26 12:15:28;;;;;;;5.28;3.22;;;5.30;96.50;;;;;;5056299;28;20044;-82
2021/01/26 12:17:54;;;;;;;6.45;3.20;;;5.40;96.80;;;;;;5077221;28;20049;-83
2021/01/26 12:20:21;;;;;;;6.60;2.80;;;5.40;96.70;;;;;;5052526;28;20036;-81
2021/01/26 12:22:59;;;;;;;5.03;2.45;;;5.30;96.80;;;;;;5034660;28;20485;-83
2021/01/26 12:25:28;;;;;;;8.20;2.88;;;5.30;97.00;;;;;;5026609;28;20037;-81
2021/01/26 12:27:54;;;;;;;6.80;3.40;;;5.30;96.80;;;;;;5050385;28;20041;-81
2021/01/26 12:30:21;;;;;;;4.40;2.03;;;5.20;96.70;;;;;;5024655;28;20044;-80
2021/01/26 12:32:53;;;;;;;8.18;3.35;;;5.20;96.30;;;;;;5073803;28;20049;-81
2021/01/26 12:35:24;;;;;;;9.30;3.47;;;5.20;96.70;;;;;;5049842;28;20059;-80
2021/01/26 12:37:50;;;;;;;6.40;2.40;;;5.10;97.20;;;;;;5039531;28;20087;-81
2021/01/26 12:40:17;;;;;;;7.90;2.83;;;5.10;96.40;;;;;;5065700;28;20044;-81
2021/01/26 12:42:43;;;;;;;4.55;2.10;;;5.10;96.40;;;;;;5070261;28;20075;-82
2021/01/26 12:45:11;;;;;;;6.35;3.00;;;5.20;96.70;;;;;;5047473;28;20043;-81
2021/01/26 12:47:38;;;;;;;6.97;2.20;;;5.20;96.50;;;;;;5052886;28;20059;-82
2021/01/26 12:50:06;;;;;;;7.25;1.83;;;5.30;96.00;;;;;;5044802;28;20089;-82
2021/01/26 12:52:32;;;;;;;10.00;2.58;;;5.40;95.80;;;;;;5071781;28;20060;-82
2021/01/26 12:54:58;;;;;;;5.82;2.17;;;5.40;95.60;;;;;;5059325;28;20053;-81
2021/01/26 12:57:24;;;;;;;15.32;3.13;;;5.50;95.90;;;;;;5059500;28;20025;-81
2021/01/26 12:59:52;;;;;;;5.00;2.20;;;5.40;95.70;;;;;;5043726;28;20041;-82
2021/01/26 13:02:22;;;;;;;6.43;2.30;;;5.50;95.40;;;;;;5058068;28;20128;-80
2021/01/26 13:04:49;;;;;;;6.55;3.20;;;5.60;95.70;;;;;;5056873;28;20100;-81
2021/01/26 13:07:17;;;;;;;9.15;2.92;;;5.60;95.90;;;;;;5042293;28;20052;-82
2021/01/26 13:09:43;;;;;;;8.32;2.58;;;5.70;95.80;;;;;;5052572;28;20041;-83
2021/01/26 13:12:09;;;;;;;7.15;2.33;;;5.60;95.90;;;;;;5036287;28;20911;-80
2021/01/26 13:14:35;;;;;;;5.22;2.13;;;5.60;95.60;;;;;;5041658;28;20116;-80
2021/01/26 13:17:01;;;;;;;8.70;2.35;;;5.60;95.50;;;;;;5047831;28;20045;-80